createdAt,value
2017-09-25T00:00:48.104Z,1015.92
2017-09-25T00:01:48.102Z,1015.92
2017-09-25T00:02:48.100Z,1015.92
2017-09-25T00:03:48.096Z,1015.90
2017-09-25T00:04:48.094Z,1015.87
2017-09-25T00:05:48.088Z,1015.83
2017-09-25T00:06:48.083Z,1015.84
2017-09-25T00:07:48.083Z,1015.81
2017-09-25T00:08:48.078Z,1015.83
2017-09-25T00:09:48.079Z,1015.83
2017-09-25T00:10:48.071Z,1015.84
2017-09-25T00:11:48.073Z,1015.80
2017-09-25T00:12:48.069Z,1015.76
2017-09-25T00:13:48.063Z,1015.79
2017-09-25T00:14:48.068Z,1015.81
2017-09-25T00:15:48.056Z,1015.77
2017-09-25T00:16:48.056Z,1015.80
2017-09-25T00:17:48.049Z,1015.76
2017-09-25T00:18:48.049Z,1015.77
2017-09-25T00:19:48.049Z,1015.73
2017-09-25T00:20:48.041Z,1015.73
2017-09-25T00:21:48.036Z,1015.72
2017-09-25T00:22:48.040Z,1015.71
2017-09-25T00:23:48.034Z,1015.78
2017-09-25T00:24:48.026Z,1015.74
2017-09-25T00:25:48.031Z,1015.75
2017-09-25T00:26:48.025Z,1015.76
2017-09-25T00:27:48.016Z,1015.75
2017-09-25T00:28:48.014Z,1015.73
2017-09-25T00:29:48.011Z,1015.73
2017-09-25T00:30:48.011Z,1015.74
2017-09-25T00:31:48.003Z,1015.74
2017-09-25T00:32:48.002Z,1015.71
2017-09-25T00:33:48.002Z,1015.69
2017-09-25T00:34:47.996Z,1015.66
2017-09-25T00:35:47.994Z,1015.67
2017-09-25T00:36:47.987Z,1015.63
2017-09-25T00:37:47.990Z,1015.62
2017-09-25T00:38:47.981Z,1015.58
2017-09-25T00:39:47.977Z,1015.62
2017-09-25T00:40:47.975Z,1015.60
2017-09-25T00:41:47.971Z,1015.55
2017-09-25T00:42:47.972Z,1015.54
2017-09-25T00:43:47.969Z,1015.53
2017-09-25T00:44:47.965Z,1015.52
2017-09-25T00:45:47.957Z,1015.51
2017-09-25T00:46:47.959Z,1015.48
2017-09-25T00:47:47.955Z,1015.48
2017-09-25T00:48:47.952Z,1015.49
2017-09-25T00:49:47.946Z,1015.47
2017-09-25T00:50:47.946Z,1015.47
2017-09-25T00:51:47.940Z,1015.45
2017-09-25T00:52:47.936Z,1015.44
2017-09-25T00:53:47.933Z,1015.45
2017-09-25T00:54:47.932Z,1015.46
2017-09-25T00:55:47.929Z,1015.47
2017-09-25T00:56:47.924Z,1015.49
2017-09-25T00:57:47.920Z,1015.46
2017-09-25T00:58:47.915Z,1015.44
2017-09-25T00:59:47.913Z,1015.46
2017-09-25T01:00:47.911Z,1015.45
2017-09-25T01:01:47.908Z,1015.48
2017-09-25T01:02:47.905Z,1015.47
2017-09-25T01:03:47.901Z,1015.45
2017-09-25T01:04:47.897Z,1015.44
2017-09-25T01:05:47.909Z,1015.45
2017-09-25T01:06:47.893Z,1015.42
2017-09-25T01:07:47.891Z,1015.47
2017-09-25T01:08:47.888Z,1015.44
2017-09-25T01:09:47.883Z,1015.43
2017-09-25T01:10:47.883Z,1015.41
2017-09-25T01:11:47.876Z,1015.41
2017-09-25T01:12:47.875Z,1015.44
2017-09-25T01:13:47.870Z,1015.43
2017-09-25T01:14:47.865Z,1015.39
2017-09-25T01:15:47.863Z,1015.42
2017-09-25T01:16:47.863Z,1015.43
2017-09-25T01:17:47.856Z,1015.44
2017-09-25T01:18:47.855Z,1015.41
2017-09-25T01:19:47.852Z,1015.43
2017-09-25T01:20:47.847Z,1015.39
2017-09-25T01:21:47.858Z,1015.38
2017-09-25T01:22:47.837Z,1015.42
2017-09-25T01:23:47.839Z,1015.39
2017-09-25T01:24:47.837Z,1015.39
2017-09-25T01:25:47.830Z,1015.35
2017-09-25T01:26:47.825Z,1015.30
2017-09-25T01:27:47.821Z,1015.33
2017-09-25T01:28:47.819Z,1015.34
2017-09-25T01:29:47.815Z,1015.35
2017-09-25T01:30:47.812Z,1015.34
2017-09-25T01:31:47.809Z,1015.27
2017-09-25T01:32:47.809Z,1015.31
2017-09-25T01:33:47.801Z,1015.31
2017-09-25T01:34:47.802Z,1015.32
2017-09-25T01:35:47.796Z,1015.32
2017-09-25T01:36:47.795Z,1015.32
2017-09-25T01:37:47.790Z,1015.32
2017-09-25T01:38:47.791Z,1015.30
2017-09-25T01:39:47.786Z,1015.29
2017-09-25T01:40:47.781Z,1015.30
2017-09-25T01:41:47.778Z,1015.28
2017-09-25T01:42:47.777Z,1015.31
2017-09-25T01:43:47.767Z,1015.27
2017-09-25T01:44:47.767Z,1015.25
2017-09-25T01:45:47.762Z,1015.30
2017-09-25T01:46:47.761Z,1015.26
2017-09-25T01:47:47.758Z,1015.25
2017-09-25T01:48:47.753Z,1015.26
2017-09-25T01:49:47.752Z,1015.25
2017-09-25T01:50:47.746Z,1015.26
2017-09-25T01:51:47.743Z,1015.29
2017-09-25T01:52:47.742Z,1015.22
2017-09-25T01:53:47.738Z,1015.22
2017-09-25T01:54:47.735Z,1015.21
2017-09-25T01:55:47.731Z,1015.19
2017-09-25T01:56:47.725Z,1015.20
2017-09-25T01:57:47.727Z,1015.18
2017-09-25T01:58:47.719Z,1015.18
2017-09-25T01:59:47.722Z,1015.17
2017-09-25T02:00:47.714Z,1015.12
2017-09-25T02:01:47.710Z,1015.13
2017-09-25T02:02:47.706Z,1015.11
2017-09-25T02:03:47.704Z,1015.12
2017-09-25T02:04:47.705Z,1015.14
2017-09-25T02:05:47.699Z,1015.13
2017-09-25T02:06:47.700Z,1015.14
2017-09-25T02:07:47.694Z,1015.12
2017-09-25T02:08:47.706Z,1015.13
2017-09-25T02:09:47.687Z,1015.14
2017-09-25T02:10:47.683Z,1015.16
2017-09-25T02:11:47.676Z,1015.14
2017-09-25T02:12:47.674Z,1015.14
2017-09-25T02:13:47.676Z,1015.16
2017-09-25T02:14:47.670Z,1015.15
2017-09-25T02:15:47.663Z,1015.13
2017-09-25T02:16:47.663Z,1015.12
2017-09-25T02:17:47.660Z,1015.12
2017-09-25T02:18:47.657Z,1015.15
2017-09-25T02:19:47.656Z,1015.14
2017-09-25T02:20:47.655Z,1015.17
2017-09-25T02:21:47.642Z,1015.15
2017-09-25T02:22:47.645Z,1015.18
2017-09-25T02:23:47.639Z,1015.18
2017-09-25T02:24:47.645Z,1015.21
2017-09-25T02:25:47.638Z,1015.17
2017-09-25T02:26:47.660Z,1015.20
2017-09-25T02:27:47.628Z,1015.19
2017-09-25T02:28:47.624Z,1015.21
2017-09-25T02:29:47.627Z,1015.19
2017-09-25T02:30:47.615Z,1015.20
2017-09-25T02:31:47.614Z,1015.25
2017-09-25T02:32:47.610Z,1015.24
2017-09-25T02:33:47.604Z,1015.22
2017-09-25T02:34:47.606Z,1015.20
2017-09-25T02:35:47.601Z,1015.20
2017-09-25T02:36:47.601Z,1015.16
2017-09-25T02:37:47.599Z,1015.16
2017-09-25T02:38:47.589Z,1015.14
2017-09-25T02:39:47.585Z,1015.15
2017-09-25T02:40:47.584Z,1015.17
2017-09-25T02:41:47.585Z,1015.16
2017-09-25T02:42:47.577Z,1015.11
2017-09-25T02:43:47.575Z,1015.09
2017-09-25T02:44:47.573Z,1015.10
2017-09-25T02:45:47.568Z,1015.09
2017-09-25T02:46:47.563Z,1015.09
2017-09-25T02:47:47.561Z,1015.08
2017-09-25T02:48:47.564Z,1015.09
2017-09-25T02:49:47.553Z,1015.10
2017-09-25T02:50:47.550Z,1015.11
2017-09-25T02:51:47.549Z,1015.08
2017-09-25T02:52:47.548Z,1015.10
2017-09-25T02:53:47.540Z,1015.10
2017-09-25T02:54:47.539Z,1015.10
2017-09-25T02:55:47.533Z,1015.10
2017-09-25T02:56:47.530Z,1015.11
2017-09-25T02:57:47.528Z,1015.11
2017-09-25T02:58:47.523Z,1015.09
2017-09-25T02:59:47.520Z,1015.11
2017-09-25T03:00:47.517Z,1015.12
2017-09-25T03:01:47.517Z,1015.10
2017-09-25T03:02:47.511Z,1015.12
2017-09-25T03:03:47.507Z,1015.10
2017-09-25T03:04:47.506Z,1015.08
2017-09-25T03:05:47.503Z,1015.04
2017-09-25T03:06:47.500Z,1015.08
2017-09-25T03:07:47.493Z,1015.08
2017-09-25T03:08:47.493Z,1015.07
2017-09-25T03:09:47.486Z,1015.04
2017-09-25T03:10:47.484Z,1015.08
2017-09-25T03:11:47.483Z,1015.05
2017-09-25T03:12:47.478Z,1015.05
2017-09-25T03:13:47.475Z,1015.04
2017-09-25T03:14:47.473Z,1015.03
2017-09-25T03:15:47.472Z,1015.06
2017-09-25T03:16:47.469Z,1015.03
2017-09-25T03:17:47.465Z,1015.05
2017-09-25T03:18:47.464Z,1015.04
2017-09-25T03:19:47.459Z,1015.03
2017-09-25T03:20:47.453Z,1015.01
2017-09-25T03:21:47.452Z,1015.02
2017-09-25T03:22:47.446Z,1015.01
2017-09-25T03:23:47.440Z,1015.00
2017-09-25T03:24:47.437Z,1014.98
2017-09-25T03:25:47.436Z,1014.95
2017-09-25T03:26:47.435Z,1014.97
2017-09-25T03:27:47.430Z,1014.92
2017-09-25T03:28:47.426Z,1014.89
2017-09-25T03:29:47.434Z,1014.90
2017-09-25T03:30:47.421Z,1014.89
2017-09-25T03:31:47.418Z,1014.91
2017-09-25T03:32:47.414Z,1014.85
2017-09-25T03:33:47.408Z,1014.88
2017-09-25T03:34:47.404Z,1014.90
2017-09-25T03:35:47.402Z,1014.97
2017-09-25T03:36:47.401Z,1014.96
2017-09-25T03:37:47.398Z,1014.95
2017-09-25T03:38:47.391Z,1014.96
2017-09-25T03:39:47.393Z,1015.01
2017-09-25T03:40:47.389Z,1014.98
2017-09-25T03:41:47.383Z,1014.99
2017-09-25T03:42:47.377Z,1015.00
2017-09-25T03:43:47.377Z,1015.00
2017-09-25T03:44:47.375Z,1014.97
2017-09-25T03:45:47.368Z,1015.00
2017-09-25T03:46:47.367Z,1014.98
2017-09-25T03:47:47.364Z,1015.00
2017-09-25T03:48:47.362Z,1014.96
2017-09-25T03:49:47.358Z,1014.97
2017-09-25T03:50:47.356Z,1014.95
2017-09-25T03:51:47.359Z,1014.98
2017-09-25T03:52:47.348Z,1014.92
2017-09-25T03:53:47.344Z,1014.92
2017-09-25T03:54:47.339Z,1014.95
2017-09-25T03:55:47.342Z,1014.95
2017-09-25T03:56:47.333Z,1014.96
2017-09-25T03:57:47.327Z,1014.97
2017-09-25T03:58:47.327Z,1014.96
2017-09-25T03:59:47.324Z,1014.96
2017-09-25T04:00:47.321Z,1014.96
2017-09-25T04:01:47.318Z,1014.92
2017-09-25T04:02:47.313Z,1014.91
2017-09-25T04:03:47.308Z,1014.96
2017-09-25T04:04:47.312Z,1014.93
2017-09-25T04:05:47.303Z,1014.92
2017-09-25T04:06:47.303Z,1014.90
2017-09-25T04:07:47.298Z,1014.90
2017-09-25T04:08:47.295Z,1014.87
2017-09-25T04:09:47.301Z,1014.88
2017-09-25T04:10:47.289Z,1014.91
2017-09-25T04:11:47.284Z,1014.91
2017-09-25T04:12:47.282Z,1014.90
2017-09-25T04:13:47.276Z,1014.90
2017-09-25T04:14:47.276Z,1014.89
2017-09-25T04:15:47.270Z,1014.90
2017-09-25T04:16:47.266Z,1014.91
2017-09-25T04:17:47.267Z,1014.87
2017-09-25T04:18:47.260Z,1014.87
2017-09-25T04:19:47.256Z,1014.88
2017-09-25T04:20:47.254Z,1014.88
2017-09-25T04:21:47.248Z,1014.86
2017-09-25T04:22:47.248Z,1014.84
2017-09-25T04:23:47.243Z,1014.86
2017-09-25T04:24:47.241Z,1014.84
2017-09-25T04:25:47.238Z,1014.84
2017-09-25T04:26:47.238Z,1014.81
2017-09-25T04:27:47.233Z,1014.81
2017-09-25T04:28:47.228Z,1014.82
2017-09-25T04:29:47.221Z,1014.83
2017-09-25T04:30:47.235Z,1014.82
2017-09-25T04:31:47.215Z,1014.85
2017-09-25T04:32:47.215Z,1014.84
2017-09-25T04:33:47.210Z,1014.84
2017-09-25T04:34:47.205Z,1014.87
2017-09-25T04:35:47.204Z,1014.87
2017-09-25T04:36:47.203Z,1014.85
2017-09-25T04:37:47.196Z,1014.88
2017-09-25T04:38:47.193Z,1014.88
2017-09-25T04:39:47.191Z,1014.86
2017-09-25T04:40:47.189Z,1014.88
2017-09-25T04:41:47.185Z,1014.91
2017-09-25T04:42:47.180Z,1014.89
2017-09-25T04:43:47.176Z,1014.93
2017-09-25T04:44:47.172Z,1014.92
2017-09-25T04:45:47.172Z,1014.92
2017-09-25T04:46:47.165Z,1014.94
2017-09-25T04:47:47.162Z,1014.96
2017-09-25T04:48:47.161Z,1014.98
2017-09-25T04:49:47.155Z,1014.95
2017-09-25T04:50:47.154Z,1014.97
2017-09-25T04:51:47.147Z,1014.97
2017-09-25T04:52:47.147Z,1014.95
2017-09-25T04:53:47.143Z,1014.94
2017-09-25T04:54:47.142Z,1014.93
2017-09-25T04:55:47.139Z,1014.94
2017-09-25T04:56:47.135Z,1014.97
2017-09-25T04:57:47.131Z,1014.95
2017-09-25T04:58:47.127Z,1014.94
2017-09-25T04:59:47.123Z,1014.96
2017-09-25T05:00:47.121Z,1014.96
2017-09-25T05:01:47.115Z,1014.97
2017-09-25T05:02:47.115Z,1014.99
2017-09-25T05:03:47.110Z,1014.97
2017-09-25T05:04:47.118Z,1015.01
2017-09-25T05:05:47.104Z,1015.03
2017-09-25T05:06:47.096Z,1014.97
2017-09-25T05:07:47.095Z,1015.02
2017-09-25T05:08:47.093Z,1014.99
2017-09-25T05:09:47.092Z,1015.01
2017-09-25T05:10:47.090Z,1015.02
2017-09-25T05:11:47.084Z,1015.02
2017-09-25T05:12:47.081Z,1015.05
2017-09-25T05:13:47.080Z,1015.03
2017-09-25T05:14:47.074Z,1015.04
2017-09-25T05:15:47.071Z,1015.05
2017-09-25T05:16:47.065Z,1015.05
2017-09-25T05:17:47.060Z,1015.00
2017-09-25T05:18:47.062Z,1015.02
2017-09-25T05:19:47.057Z,1015.07
2017-09-25T05:20:47.053Z,1015.06
2017-09-25T05:21:47.049Z,1015.07
2017-09-25T05:22:47.046Z,1015.07
2017-09-25T05:23:47.075Z,1015.08
2017-09-25T05:24:47.038Z,1015.03
2017-09-25T05:25:47.039Z,1015.10
2017-09-25T05:26:47.031Z,1015.05
2017-09-25T05:27:47.090Z,1015.06
2017-09-25T05:28:47.027Z,1015.10
2017-09-25T05:29:47.026Z,1015.10
2017-09-25T05:30:47.016Z,1015.11
2017-09-25T05:31:47.013Z,1015.10
2017-09-25T05:32:47.013Z,1015.11
2017-09-25T05:33:47.015Z,1015.13
2017-09-25T05:34:47.004Z,1015.14
2017-09-25T05:35:47.004Z,1015.18
2017-09-25T05:36:47.000Z,1015.15
2017-09-25T05:37:46.994Z,1015.16
2017-09-25T05:38:46.991Z,1015.16
2017-09-25T05:39:46.990Z,1015.15
2017-09-25T05:40:46.990Z,1015.14
2017-09-25T05:41:46.978Z,1015.18
2017-09-25T05:42:46.976Z,1015.15
2017-09-25T05:43:46.974Z,1015.18
2017-09-25T05:44:46.974Z,1015.17
2017-09-25T05:45:46.978Z,1015.19
2017-09-25T05:46:46.964Z,1015.17
2017-09-25T05:47:46.961Z,1015.21
2017-09-25T05:48:46.961Z,1015.20
2017-09-25T05:49:46.955Z,1015.19
2017-09-25T05:50:46.952Z,1015.20
2017-09-25T05:51:46.948Z,1015.20
2017-09-25T05:52:46.946Z,1015.19
2017-09-25T05:53:46.942Z,1015.19
2017-09-25T05:54:46.938Z,1015.16
2017-09-25T05:55:46.933Z,1015.23
2017-09-25T05:56:46.930Z,1015.22
2017-09-25T05:57:46.926Z,1015.24
2017-09-25T05:58:46.926Z,1015.22
2017-09-25T05:59:46.921Z,1015.22
2017-09-25T06:00:46.920Z,1015.18
2017-09-25T06:01:46.916Z,1015.18
2017-09-25T06:02:46.909Z,1015.21
2017-09-25T06:03:46.910Z,1015.20
2017-09-25T06:04:46.908Z,1015.20
2017-09-25T06:05:46.908Z,1015.21
2017-09-25T06:06:46.894Z,1015.22
2017-09-25T06:07:46.898Z,1015.22
2017-09-25T06:08:46.890Z,1015.25
2017-09-25T06:09:46.884Z,1015.26
2017-09-25T06:10:46.883Z,1015.22
2017-09-25T06:11:46.879Z,1015.21
2017-09-25T06:12:46.875Z,1015.23
2017-09-25T06:13:46.870Z,1015.19
2017-09-25T06:14:46.868Z,1015.18
2017-09-25T06:15:46.868Z,1015.22
2017-09-25T06:16:46.863Z,1015.19
2017-09-25T06:17:46.864Z,1015.20
2017-09-25T06:18:46.853Z,1015.18
2017-09-25T06:19:46.850Z,1015.20
2017-09-25T06:20:46.849Z,1015.18
2017-09-25T06:21:46.845Z,1015.22
2017-09-25T06:22:46.842Z,1015.23
2017-09-25T06:23:46.843Z,1015.19
2017-09-25T06:24:46.835Z,1015.19
2017-09-25T06:25:46.832Z,1015.20
2017-09-25T06:26:46.855Z,1015.18
2017-09-25T06:27:46.823Z,1015.17
2017-09-25T06:28:46.819Z,1015.16
2017-09-25T06:29:46.818Z,1015.19
2017-09-25T06:30:46.812Z,1015.17
2017-09-25T06:31:46.813Z,1015.12
2017-09-25T06:32:46.811Z,1015.15
2017-09-25T06:33:46.804Z,1015.13
2017-09-25T06:34:46.799Z,1015.09
2017-09-25T06:35:46.803Z,1015.15
2017-09-25T06:36:46.794Z,1015.08
2017-09-25T06:37:46.793Z,1015.12
2017-09-25T06:38:46.790Z,1015.10
2017-09-25T06:39:46.786Z,1015.12
2017-09-25T06:40:46.787Z,1015.08
2017-09-25T06:41:46.778Z,1015.09
2017-09-25T06:42:46.777Z,1015.10
2017-09-25T06:43:46.769Z,1015.08
2017-09-25T06:44:46.779Z,1015.07
2017-09-25T06:45:46.762Z,1015.09
2017-09-25T06:46:46.762Z,1015.09
2017-09-25T06:47:46.761Z,1015.08
2017-09-25T06:48:46.754Z,1015.07
2017-09-25T06:49:46.755Z,1015.09
2017-09-25T06:50:46.750Z,1015.09
2017-09-25T06:51:46.743Z,1015.12
2017-09-25T06:52:46.741Z,1015.10
2017-09-25T06:53:46.737Z,1015.10
2017-09-25T06:54:46.734Z,1015.14
2017-09-25T06:55:46.730Z,1015.10
2017-09-25T06:56:46.727Z,1015.11
2017-09-25T06:57:46.722Z,1015.13
2017-09-25T06:58:46.724Z,1015.12
2017-09-25T06:59:46.718Z,1015.10
2017-09-25T07:00:46.712Z,1015.15
2017-09-25T07:01:46.711Z,1015.12
2017-09-25T07:02:46.708Z,1015.14
2017-09-25T07:03:46.703Z,1015.13
2017-09-25T07:04:46.701Z,1015.15
2017-09-25T07:05:46.696Z,1015.14
2017-09-25T07:06:46.692Z,1015.16
2017-09-25T07:07:46.689Z,1015.17
2017-09-25T07:08:46.691Z,1015.16
2017-09-25T07:09:46.681Z,1015.20
2017-09-25T07:10:46.678Z,1015.20
2017-09-25T07:11:46.677Z,1015.16
2017-09-25T07:12:46.674Z,1015.20
2017-09-25T07:13:46.666Z,1015.20
2017-09-25T07:14:46.668Z,1015.22
2017-09-25T07:15:46.670Z,1015.19
2017-09-25T07:16:46.658Z,1015.19
2017-09-25T07:17:46.657Z,1015.19
2017-09-25T07:18:46.653Z,1015.20
2017-09-25T07:19:46.649Z,1015.16
2017-09-25T07:20:46.647Z,1015.17
2017-09-25T07:21:46.643Z,1015.17
2017-09-25T07:22:46.641Z,1015.16
2017-09-25T07:23:46.636Z,1015.18
2017-09-25T07:24:46.632Z,1015.15
2017-09-25T07:25:46.632Z,1015.18
2017-09-25T07:26:46.625Z,1015.17
2017-09-25T07:27:46.622Z,1015.23
2017-09-25T07:28:46.617Z,1015.20
2017-09-25T07:29:46.622Z,1015.22
2017-09-25T07:30:46.612Z,1015.20
2017-09-25T07:31:46.609Z,1015.21
2017-09-25T07:32:46.609Z,1015.21
2017-09-25T07:33:46.603Z,1015.17
2017-09-25T07:34:46.596Z,1015.18
2017-09-25T07:35:46.595Z,1015.18
2017-09-25T07:36:46.596Z,1015.18
2017-09-25T07:37:46.587Z,1015.14
2017-09-25T07:38:46.583Z,1015.13
2017-09-25T07:39:46.581Z,1015.13
2017-09-25T07:40:46.576Z,1015.12
2017-09-25T07:41:46.574Z,1015.10
2017-09-25T07:42:46.570Z,1015.09
2017-09-25T07:43:46.564Z,1015.11
2017-09-25T07:44:46.563Z,1015.17
2017-09-25T07:45:46.558Z,1015.15
2017-09-25T07:46:46.555Z,1015.10
2017-09-25T07:47:46.551Z,1015.11
2017-09-25T07:48:46.551Z,1015.10
2017-09-25T07:49:46.546Z,1015.08
2017-09-25T07:50:46.548Z,1015.08
2017-09-25T07:51:46.537Z,1015.09
2017-09-25T07:52:46.535Z,1015.05
2017-09-25T07:53:46.537Z,1014.99
2017-09-25T07:54:46.530Z,1015.02
2017-09-25T07:55:46.529Z,1015.01
2017-09-25T07:56:46.527Z,1015.04
2017-09-25T07:57:46.519Z,1014.99
2017-09-25T07:58:46.521Z,1014.99
2017-09-25T07:59:46.512Z,1015.03
2017-09-25T08:00:46.511Z,1015.04
2017-09-25T08:01:46.505Z,1015.01
2017-09-25T08:02:46.501Z,1015.02
2017-09-25T08:03:46.499Z,1015.02
2017-09-25T08:04:46.495Z,1015.01
2017-09-25T08:05:46.492Z,1015.01
2017-09-25T08:06:46.486Z,1015.06
2017-09-25T08:07:46.484Z,1015.04
2017-09-25T08:08:46.479Z,1015.09
2017-09-25T08:09:46.481Z,1015.07
2017-09-25T08:10:46.473Z,1015.10
2017-09-25T08:11:46.471Z,1015.06
2017-09-25T08:12:46.469Z,1015.07
2017-09-25T08:13:46.464Z,1015.11
2017-09-25T08:14:46.459Z,1015.12
2017-09-25T08:15:46.459Z,1015.11
2017-09-25T08:16:46.459Z,1015.11
2017-09-25T08:17:46.454Z,1015.09
2017-09-25T08:18:46.449Z,1015.06
2017-09-25T08:19:46.444Z,1015.10
2017-09-25T08:20:46.444Z,1015.09
2017-09-25T08:21:46.438Z,1015.12
2017-09-25T08:22:46.435Z,1015.08
2017-09-25T08:23:46.432Z,1015.07
2017-09-25T08:24:46.435Z,1015.12
2017-09-25T08:25:46.424Z,1015.13
2017-09-25T08:26:46.419Z,1015.15
2017-09-25T08:27:46.419Z,1015.13
2017-09-25T08:28:46.416Z,1015.14
2017-09-25T08:29:46.409Z,1015.16
2017-09-25T08:30:46.409Z,1015.14
2017-09-25T08:31:46.406Z,1015.14
2017-09-25T08:32:46.404Z,1015.09
2017-09-25T08:33:46.398Z,1015.12
2017-09-25T08:34:46.395Z,1015.09
2017-09-25T08:35:46.391Z,1015.12
2017-09-25T08:36:46.391Z,1015.11
2017-09-25T08:37:46.384Z,1015.13
2017-09-25T08:38:46.383Z,1015.15
2017-09-25T08:39:46.378Z,1015.16
2017-09-25T08:40:46.376Z,1015.16
2017-09-25T08:41:46.372Z,1015.18
2017-09-25T08:42:46.368Z,1015.16
2017-09-25T08:43:46.370Z,1015.20
2017-09-25T08:44:46.362Z,1015.17
2017-09-25T08:45:46.358Z,1015.23
2017-09-25T08:46:46.357Z,1015.26
2017-09-25T08:47:46.352Z,1015.22
2017-09-25T08:48:46.348Z,1015.23
2017-09-25T08:49:46.348Z,1015.23
2017-09-25T08:50:46.345Z,1015.19
2017-09-25T08:51:46.341Z,1015.25
2017-09-25T08:52:46.340Z,1015.24
2017-09-25T08:53:46.332Z,1015.25
2017-09-25T08:54:46.330Z,1015.30
2017-09-25T08:55:46.368Z,1015.23
2017-09-25T08:56:46.321Z,1015.27
2017-09-25T08:57:46.322Z,1015.26
2017-09-25T08:58:46.323Z,1015.23
2017-09-25T08:59:46.316Z,1015.26
2017-09-25T09:00:46.312Z,1015.22
2017-09-25T09:01:46.306Z,1015.21
2017-09-25T09:02:46.305Z,1015.18
2017-09-25T09:03:46.300Z,1015.22
2017-09-25T09:04:46.299Z,1015.21
2017-09-25T09:05:46.299Z,1015.16
2017-09-25T09:06:46.291Z,1015.17
2017-09-25T09:07:46.288Z,1015.18
2017-09-25T09:08:46.285Z,1015.15
2017-09-25T09:09:46.282Z,1015.13
2017-09-25T09:10:46.280Z,1015.11
2017-09-25T09:11:46.279Z,1015.11
2017-09-25T09:12:46.275Z,1015.12
2017-09-25T09:13:46.275Z,1015.12
2017-09-25T09:14:46.267Z,1015.11
2017-09-25T09:15:46.268Z,1015.10
2017-09-25T09:16:46.262Z,1015.10
2017-09-25T09:17:46.258Z,1015.07
2017-09-25T09:18:46.252Z,1015.06
2017-09-25T09:19:46.249Z,1015.08
2017-09-25T09:20:46.247Z,1015.08
2017-09-25T09:21:46.243Z,1015.06
2017-09-25T09:22:46.240Z,1015.08
2017-09-25T09:23:46.238Z,1015.12
2017-09-25T09:24:46.235Z,1015.15
2017-09-25T09:25:46.231Z,1015.12
2017-09-25T09:26:46.231Z,1015.09
2017-09-25T09:27:46.228Z,1015.12
2017-09-25T09:28:46.222Z,1015.11
2017-09-25T09:29:46.217Z,1015.11
2017-09-25T09:30:46.218Z,1015.12
2017-09-25T09:31:46.212Z,1015.14
2017-09-25T09:32:46.212Z,1015.13
2017-09-25T09:33:46.211Z,1015.09
2017-09-25T09:34:46.202Z,1015.09
2017-09-25T09:35:46.200Z,1015.10
2017-09-25T09:36:46.200Z,1015.09
2017-09-25T09:37:46.205Z,1015.06
2017-09-25T09:38:46.194Z,1015.10
2017-09-25T09:39:46.189Z,1015.10
2017-09-25T09:40:46.185Z,1015.11
2017-09-25T09:41:46.182Z,1015.09
2017-09-25T09:42:46.177Z,1015.08
2017-09-25T09:43:46.178Z,1015.06
2017-09-25T09:44:46.173Z,1015.03
2017-09-25T09:45:46.167Z,1015.08
2017-09-25T09:46:46.165Z,1015.07
2017-09-25T09:47:46.167Z,1015.04
2017-09-25T09:48:46.163Z,1015.02
2017-09-25T09:49:46.155Z,1015.02
2017-09-25T09:50:46.152Z,1015.00
2017-09-25T09:51:46.157Z,1015.05
2017-09-25T09:52:46.147Z,1015.04
2017-09-25T09:53:46.143Z,1015.01
2017-09-25T09:54:46.143Z,1015.00
2017-09-25T09:55:46.141Z,1015.02
2017-09-25T09:56:46.135Z,1015.01
2017-09-25T09:57:46.131Z,1015.01
2017-09-25T09:58:46.134Z,1015.00
2017-09-25T09:59:46.127Z,1014.97
2017-09-25T10:00:46.126Z,1014.98
2017-09-25T10:01:46.120Z,1014.98
2017-09-25T10:02:46.117Z,1014.98
2017-09-25T10:03:46.115Z,1015.00
2017-09-25T10:04:46.112Z,1014.97
2017-09-25T10:05:46.111Z,1014.99
2017-09-25T10:06:46.106Z,1015.02
2017-09-25T10:07:46.104Z,1015.01
2017-09-25T10:08:46.103Z,1015.02
2017-09-25T10:09:46.096Z,1014.99
2017-09-25T10:10:46.098Z,1015.02
2017-09-25T10:11:46.091Z,1014.96
2017-09-25T10:12:46.090Z,1014.97
2017-09-25T10:13:46.086Z,1015.00
2017-09-25T10:14:46.081Z,1014.98
2017-09-25T10:15:46.080Z,1014.97
2017-09-25T10:16:46.075Z,1014.97
2017-09-25T10:17:46.073Z,1014.95
2017-09-25T10:18:46.071Z,1014.95
2017-09-25T10:19:46.066Z,1014.95
2017-09-25T10:20:46.067Z,1014.91
2017-09-25T10:21:46.060Z,1014.93
2017-09-25T10:22:46.058Z,1014.95
2017-09-25T10:23:46.054Z,1014.94
2017-09-25T10:24:46.051Z,1014.91
2017-09-25T10:25:46.047Z,1014.92
2017-09-25T10:26:46.048Z,1014.93
2017-09-25T10:27:46.049Z,1014.92
2017-09-25T10:28:46.042Z,1014.89
2017-09-25T10:29:46.039Z,1014.92
2017-09-25T10:30:46.037Z,1014.90
2017-09-25T10:31:46.036Z,1014.91
2017-09-25T10:32:46.033Z,1014.93
2017-09-25T10:33:46.026Z,1014.91
2017-09-25T10:34:46.022Z,1014.91
2017-09-25T10:35:46.022Z,1014.95
2017-09-25T10:36:46.017Z,1014.95
2017-09-25T10:37:46.016Z,1014.96
2017-09-25T10:38:46.019Z,1014.97
2017-09-25T10:39:46.012Z,1014.94
2017-09-25T10:40:46.007Z,1014.95
2017-09-25T10:41:46.002Z,1014.91
2017-09-25T10:42:46.002Z,1014.93
2017-09-25T10:43:45.996Z,1014.90
2017-09-25T10:44:46.007Z,1014.88
2017-09-25T10:45:48.691Z,1014.88
2017-09-25T10:46:48.442Z,1014.87
2017-09-25T10:47:45.985Z,1014.87
2017-09-25T10:48:45.987Z,1014.85
2017-09-25T10:49:45.977Z,1014.90
2017-09-25T10:50:45.978Z,1014.91
2017-09-25T10:51:45.975Z,1014.94
2017-09-25T10:52:45.971Z,1014.91
2017-09-25T10:53:45.965Z,1014.93
2017-09-25T10:54:45.968Z,1014.94
2017-09-25T10:55:45.964Z,1014.91
2017-09-25T10:56:45.961Z,1014.95
2017-09-25T10:57:45.957Z,1014.94
2017-09-25T10:58:45.953Z,1014.94
2017-09-25T10:59:45.951Z,1014.91
2017-09-25T11:00:45.953Z,1014.85
2017-09-25T11:01:45.952Z,1014.90
2017-09-25T11:02:45.941Z,1014.93
2017-09-25T11:03:45.938Z,1014.90
2017-09-25T11:04:45.937Z,1014.85
2017-09-25T11:05:45.931Z,1014.86
2017-09-25T11:06:45.933Z,1014.87
2017-09-25T11:07:45.927Z,1014.81
2017-09-25T11:08:45.929Z,1014.79
2017-09-25T11:09:45.923Z,1014.84
2017-09-25T11:10:45.922Z,1014.80
2017-09-25T11:11:45.939Z,1014.78
2017-09-25T11:12:45.920Z,1014.81
2017-09-25T11:13:45.915Z,1014.80
2017-09-25T11:14:45.909Z,1014.80
2017-09-25T11:15:45.908Z,1014.79
2017-09-25T11:16:45.901Z,1014.77
2017-09-25T11:17:45.903Z,1014.75
2017-09-25T11:18:45.898Z,1014.76
2017-09-25T11:19:45.891Z,1014.78
2017-09-25T11:20:45.891Z,1014.72
2017-09-25T11:21:45.902Z,1014.71
2017-09-25T11:22:45.887Z,1014.70
2017-09-25T11:23:45.881Z,1014.70
2017-09-25T11:24:45.901Z,1014.73
2017-09-25T11:25:45.913Z,1014.70
2017-09-25T11:26:45.875Z,1014.72
2017-09-25T11:27:45.876Z,1014.71
2017-09-25T11:28:45.880Z,1014.69
2017-09-25T11:29:45.879Z,1014.70
2017-09-25T11:30:45.959Z,1014.71
2017-09-25T11:31:45.886Z,1014.70
2017-09-25T11:32:45.882Z,1014.73
2017-09-25T11:33:45.889Z,1014.74
2017-09-25T11:34:45.870Z,1014.72
2017-09-25T11:35:45.865Z,1014.69
2017-09-25T11:36:45.854Z,1014.69
2017-09-25T11:37:45.841Z,1014.70
2017-09-25T11:38:45.840Z,1014.68
2017-09-25T11:39:45.838Z,1014.69
2017-09-25T11:40:48.311Z,1014.68
2017-09-25T11:41:48.561Z,1014.67
2017-09-25T11:42:48.835Z,1014.68
2017-09-25T11:43:48.429Z,1014.67
2017-09-25T11:44:48.477Z,1014.71
2017-09-25T11:45:45.821Z,1014.70
2017-09-25T11:46:46.839Z,1014.67
2017-09-25T11:47:47.133Z,1014.67
2017-09-25T11:48:46.850Z,1014.67
2017-09-25T11:49:47.157Z,1014.68
2017-09-25T11:50:47.077Z,1014.66
2017-09-25T11:51:50.090Z,1014.66
2017-09-25T11:52:45.802Z,1014.61
2017-09-25T11:53:45.807Z,1014.60
2017-09-25T11:54:45.794Z,1014.60
2017-09-25T11:55:45.794Z,1014.61
2017-09-25T11:56:45.793Z,1014.63
2017-09-25T11:57:45.786Z,1014.62
2017-09-25T11:58:45.785Z,1014.61
2017-09-25T11:59:45.779Z,1014.59
2017-09-25T12:00:45.777Z,1014.58
2017-09-25T12:01:45.776Z,1014.58
2017-09-25T12:02:45.770Z,1014.57
2017-09-25T12:03:45.772Z,1014.58
2017-09-25T12:04:45.773Z,1014.55
2017-09-25T12:05:45.765Z,1014.56